createdAt,value
2019-04-30T00:00:43.201Z,1018.47
2019-04-30T00:01:43.188Z,1018.46
2019-04-30T00:02:45.302Z,1018.46
2019-04-30T00:03:43.175Z,1018.46
2019-04-30T00:04:45.161Z,1018.46
2019-04-30T00:05:44.995Z,1018.48
2019-04-30T00:06:43.161Z,1018.47
2019-04-30T00:07:43.156Z,1018.45
2019-04-30T00:08:45.051Z,1018.46
2019-04-30T00:09:44.866Z,1018.48
2019-04-30T00:10:43.132Z,1018.51
2019-04-30T00:11:43.130Z,1018.46
2019-04-30T00:12:43.125Z,1018.42
2019-04-30T00:13:43.144Z,1018.42
2019-04-30T00:14:44.838Z,1018.43
2019-04-30T00:15:43.114Z,1018.49
2019-04-30T00:16:45.043Z,1018.43
2019-04-30T00:17:43.099Z,1018.43
2019-04-30T00:18:55.392Z,1018.42
2019-04-30T00:19:43.084Z,1018.46
2019-04-30T00:20:45.296Z,1018.48
2019-04-30T00:21:43.066Z,1018.49
2019-04-30T00:22:47.181Z,1018.45
2019-04-30T00:23:43.056Z,1018.48
2019-04-30T00:24:46.894Z,1018.41
2019-04-30T00:25:43.097Z,1018.44
2019-04-30T00:26:45.043Z,1018.42
2019-04-30T00:27:43.051Z,1018.41
2019-04-30T00:28:44.369Z,1018.42
2019-04-30T00:29:43.023Z,1018.45
2019-04-30T00:30:43.985Z,1018.41
2019-04-30T00:31:44.701Z,1018.46
2019-04-30T00:32:44.014Z,1018.44
2019-04-30T00:33:44.920Z,1018.42
2019-04-30T00:34:42.995Z,1018.40
2019-04-30T00:35:42.987Z,1018.47
2019-04-30T00:36:42.978Z,1018.42
2019-04-30T00:37:42.978Z,1018.42
2019-04-30T00:38:44.727Z,1018.38
2019-04-30T00:39:44.343Z,1018.39
2019-04-30T00:40:44.684Z,1018.38
2019-04-30T00:41:45.920Z,1018.38
2019-04-30T00:42:42.946Z,1018.38
2019-04-30T00:43:49.284Z,1018.32
2019-04-30T00:44:42.931Z,1018.41
2019-04-30T00:45:44.854Z,1018.30
2019-04-30T00:46:42.925Z,1018.35
2019-04-30T00:47:44.541Z,1018.33
2019-04-30T00:48:42.907Z,1018.34
2019-04-30T00:49:42.907Z,1018.29
2019-04-30T00:50:42.900Z,1018.32
2019-04-30T00:51:42.899Z,1018.28
2019-04-30T00:52:42.891Z,1018.33
2019-04-30T00:53:43.806Z,1018.30
2019-04-30T00:54:42.876Z,1018.32
2019-04-30T00:55:44.999Z,1018.31
2019-04-30T00:56:42.863Z,1018.30
2019-04-30T00:57:43.931Z,1018.30
2019-04-30T00:58:42.855Z,1018.34
2019-04-30T00:59:46.532Z,1018.30
2019-04-30T01:00:42.840Z,1018.34
2019-04-30T01:01:44.295Z,1018.24
2019-04-30T01:02:42.823Z,1018.23
2019-04-30T01:03:46.434Z,1018.26
2019-04-30T01:04:44.865Z,1018.22
2019-04-30T01:05:46.491Z,1018.23
2019-04-30T01:06:42.800Z,1018.24
2019-04-30T01:07:48.687Z,1018.25
2019-04-30T01:08:42.792Z,1018.23
2019-04-30T01:09:46.517Z,1018.26
2019-04-30T01:10:42.783Z,1018.23
2019-04-30T01:11:46.934Z,1018.22
2019-04-30T01:12:47.347Z,1018.20
2019-04-30T01:13:50.206Z,1018.14
2019-04-30T01:14:42.758Z,1018.17
2019-04-30T01:15:43.966Z,1018.19
2019-04-30T01:16:42.741Z,1018.19
2019-04-30T01:17:45.298Z,1018.21
2019-04-30T01:18:42.733Z,1018.16
2019-04-30T01:19:45.921Z,1018.18
2019-04-30T01:20:42.717Z,1018.19
2019-04-30T01:21:47.014Z,1018.11
2019-04-30T01:22:42.710Z,1018.14
2019-04-30T01:23:51.861Z,1018.16
2019-04-30T01:24:42.699Z,1018.14
2019-04-30T01:25:43.155Z,1018.15
2019-04-30T01:26:42.684Z,1018.11
2019-04-30T01:27:45.582Z,1018.10
2019-04-30T01:28:42.672Z,1018.13
2019-04-30T01:29:44.358Z,1018.03
2019-04-30T01:30:42.663Z,1018.07
2019-04-30T01:31:42.656Z,1018.05
2019-04-30T01:32:42.650Z,1018.04
2019-04-30T01:33:42.638Z,1018.04
2019-04-30T01:34:44.233Z,1018.07
2019-04-30T01:35:42.632Z,1018.04
2019-04-30T01:36:43.526Z,1018.06
2019-04-30T01:37:42.627Z,1018.05
2019-04-30T01:38:44.807Z,1018.02
2019-04-30T01:39:42.605Z,1018.03
2019-04-30T01:40:46.976Z,1018.05
2019-04-30T01:41:42.597Z,1018.10
2019-04-30T01:42:47.990Z,1018.07
2019-04-30T01:43:42.584Z,1018.10
2019-04-30T01:44:43.572Z,1018.04
2019-04-30T01:45:42.566Z,1018.01
2019-04-30T01:46:43.289Z,1018.04
2019-04-30T01:47:42.557Z,1018.02
2019-04-30T01:48:43.670Z,1018.02
2019-04-30T01:49:44.771Z,1018.01
2019-04-30T01:50:42.543Z,1018.02
2019-04-30T01:51:42.535Z,1018.03
2019-04-30T01:52:42.528Z,1018.05
2019-04-30T01:53:43.585Z,1018.00
2019-04-30T01:54:42.520Z,1018.02
2019-04-30T01:55:42.513Z,1018.04
2019-04-30T01:56:42.507Z,1018.02
2019-04-30T01:57:42.495Z,1017.99
2019-04-30T01:58:42.490Z,1018.02
2019-04-30T01:59:42.482Z,1017.99
2019-04-30T02:00:42.476Z,1018.01
2019-04-30T02:01:42.475Z,1017.99
2019-04-30T02:02:42.469Z,1017.98
2019-04-30T02:03:42.466Z,1018.00
2019-04-30T02:04:42.460Z,1017.99
2019-04-30T02:05:42.449Z,1018.01
2019-04-30T02:06:42.442Z,1018.03
2019-04-30T02:07:42.441Z,1018.00
2019-04-30T02:08:42.439Z,1018.01
2019-04-30T02:09:42.423Z,1018.05
2019-04-30T02:10:42.420Z,1018.01
2019-04-30T02:11:42.411Z,1018.00
2019-04-30T02:12:42.404Z,1018.02
2019-04-30T02:13:42.406Z,1017.97
2019-04-30T02:14:42.397Z,1018.00
2019-04-30T02:15:42.391Z,1018.02
2019-04-30T02:16:42.385Z,1018.02
2019-04-30T02:17:42.373Z,1018.03
2019-04-30T02:18:42.368Z,1018.03
2019-04-30T02:19:53.661Z,1018.06
2019-04-30T02:20:42.359Z,1017.99
2019-04-30T02:21:42.356Z,1018.07
2019-04-30T02:22:42.349Z,1018.03
2019-04-30T02:23:42.345Z,1017.97
2019-04-30T02:24:42.333Z,1018.03
2019-04-30T02:25:42.331Z,1018.02
2019-04-30T02:26:42.326Z,1018.03
2019-04-30T02:27:42.316Z,1018.03
2019-04-30T02:28:42.309Z,1018.03
2019-04-30T02:29:42.300Z,1018.01
2019-04-30T02:30:42.296Z,1018.08
2019-04-30T02:31:42.290Z,1018.05
2019-04-30T02:32:42.288Z,1018.03
2019-04-30T02:33:42.291Z,1018.03
2019-04-30T02:34:44.199Z,1018.08
2019-04-30T02:35:42.269Z,1018.04
2019-04-30T02:36:42.266Z,1018.05
2019-04-30T02:37:43.460Z,1018.08
2019-04-30T02:38:42.249Z,1018.10
2019-04-30T02:39:42.249Z,1018.10
2019-04-30T02:40:42.679Z,1018.08
2019-04-30T02:41:42.228Z,1018.09
2019-04-30T02:42:42.226Z,1018.07
2019-04-30T02:43:42.212Z,1018.09
2019-04-30T02:44:42.207Z,1018.13
2019-04-30T02:45:42.228Z,1018.12
2019-04-30T02:46:42.199Z,1018.07
2019-04-30T02:47:42.192Z,1018.07
2019-04-30T02:48:42.187Z,1018.08
2019-04-30T02:49:42.183Z,1018.09
2019-04-30T02:50:42.176Z,1018.07
2019-04-30T02:51:42.168Z,1018.11
2019-04-30T02:52:42.175Z,1018.10
2019-04-30T02:53:42.150Z,1018.07
2019-04-30T02:54:42.146Z,1018.11
2019-04-30T02:55:42.143Z,1018.13
2019-04-30T02:56:42.137Z,1018.10
2019-04-30T02:57:42.126Z,1018.14
2019-04-30T02:58:42.120Z,1018.07
2019-04-30T02:59:42.116Z,1018.13
2019-04-30T03:00:42.111Z,1018.09
2019-04-30T03:01:42.107Z,1018.11
2019-04-30T03:02:42.101Z,1018.13
2019-04-30T03:03:42.664Z,1018.09
2019-04-30T03:04:42.091Z,1018.11
2019-04-30T03:05:42.080Z,1018.08
2019-04-30T03:06:42.074Z,1018.11
2019-04-30T03:07:42.065Z,1018.09
2019-04-30T03:08:42.060Z,1018.12
2019-04-30T03:09:42.055Z,1018.08
2019-04-30T03:10:42.076Z,1018.08
2019-04-30T03:11:42.038Z,1018.09
2019-04-30T03:12:42.038Z,1018.08
2019-04-30T03:13:42.854Z,1018.11
2019-04-30T03:14:42.024Z,1018.10
2019-04-30T03:15:42.021Z,1018.09
2019-04-30T03:16:42.016Z,1018.12
2019-04-30T03:17:42.003Z,1018.11
2019-04-30T03:18:41.998Z,1018.12
2019-04-30T03:19:41.991Z,1018.04
2019-04-30T03:20:41.987Z,1018.05
2019-04-30T03:21:41.982Z,1018.05
2019-04-30T03:22:42.000Z,1018.01
2019-04-30T03:23:41.968Z,1018.01
2019-04-30T03:24:42.941Z,1017.98
2019-04-30T03:25:41.974Z,1017.99
2019-04-30T03:26:41.944Z,1017.97
2019-04-30T03:27:42.566Z,1017.94
2019-04-30T03:28:41.939Z,1017.96
2019-04-30T03:29:41.925Z,1017.96
2019-04-30T03:30:42.644Z,1017.98
2019-04-30T03:31:45.124Z,1017.98
2019-04-30T03:32:43.033Z,1017.99
2019-04-30T03:33:42.744Z,1018.00
2019-04-30T03:34:42.805Z,1018.00
2019-04-30T03:35:47.837Z,1017.95
2019-04-30T03:36:41.889Z,1017.98
2019-04-30T03:37:41.877Z,1017.93
2019-04-30T03:38:42.806Z,1017.96
2019-04-30T03:39:41.868Z,1017.91
2019-04-30T03:40:41.863Z,1017.99
2019-04-30T03:41:41.886Z,1017.98
2019-04-30T03:42:41.848Z,1017.96
2019-04-30T03:43:41.837Z,1017.95
2019-04-30T03:44:41.830Z,1017.93
2019-04-30T03:45:41.831Z,1017.91
2019-04-30T03:46:41.826Z,1017.96
2019-04-30T03:47:43.158Z,1017.98
2019-04-30T03:48:41.813Z,1017.90
2019-04-30T03:49:41.813Z,1017.90
2019-04-30T03:50:53.268Z,1017.86
2019-04-30T03:51:41.787Z,1017.89
2019-04-30T03:52:41.782Z,1017.87
2019-04-30T03:53:42.689Z,1017.87
2019-04-30T03:54:41.773Z,1017.85
2019-04-30T03:55:41.769Z,1017.85
2019-04-30T03:56:41.763Z,1017.92
2019-04-30T03:57:41.752Z,1017.91
2019-04-30T03:58:41.746Z,1017.89
2019-04-30T03:59:41.751Z,1017.86
2019-04-30T04:00:42.490Z,1017.92
2019-04-30T04:01:41.726Z,1017.86
2019-04-30T04:02:41.720Z,1017.88
2019-04-30T04:03:42.266Z,1017.89
2019-04-30T04:04:41.704Z,1017.89
2019-04-30T04:05:41.702Z,1017.91
2019-04-30T04:06:41.696Z,1017.85
2019-04-30T04:07:41.689Z,1017.82
2019-04-30T04:08:43.472Z,1017.87
2019-04-30T04:09:41.672Z,1017.86
2019-04-30T04:10:41.670Z,1017.87
2019-04-30T04:11:41.664Z,1017.89
2019-04-30T04:12:41.659Z,1017.85
2019-04-30T04:13:41.665Z,1017.86
2019-04-30T04:14:41.648Z,1017.90
2019-04-30T04:15:41.637Z,1017.92
2019-04-30T04:16:41.631Z,1017.87
2019-04-30T04:17:41.651Z,1017.87
2019-04-30T04:18:41.622Z,1017.84
2019-04-30T04:19:41.633Z,1017.86
2019-04-30T04:20:42.943Z,1017.86
2019-04-30T04:21:41.600Z,1017.84
2019-04-30T04:22:41.591Z,1017.86
2019-04-30T04:23:41.587Z,1017.89
2019-04-30T04:24:41.577Z,1017.91
2019-04-30T04:25:41.574Z,1017.89
2019-04-30T04:26:43.907Z,1017.88
2019-04-30T04:27:41.566Z,1017.87
2019-04-30T04:28:43.565Z,1017.85
2019-04-30T04:29:41.557Z,1017.92
2019-04-30T04:30:42.989Z,1017.93
2019-04-30T04:31:41.538Z,1017.91
2019-04-30T04:32:41.535Z,1017.88
2019-04-30T04:33:41.522Z,1017.86
2019-04-30T04:34:44.816Z,1017.87
2019-04-30T04:35:41.507Z,1017.93
2019-04-30T04:36:43.404Z,1017.93
2019-04-30T04:37:41.498Z,1017.98
2019-04-30T04:38:41.496Z,1017.98
2019-04-30T04:39:42.106Z,1017.97
2019-04-30T04:40:41.479Z,1017.94
2019-04-30T04:41:44.168Z,1017.97
2019-04-30T04:42:41.463Z,1017.95
2019-04-30T04:43:41.458Z,1017.96
2019-04-30T04:44:41.452Z,1017.97
2019-04-30T04:45:43.779Z,1018.04
2019-04-30T04:46:41.441Z,1018.04
2019-04-30T04:47:41.432Z,1018.06
2019-04-30T04:48:41.426Z,1018.04
2019-04-30T04:49:41.423Z,1017.99
2019-04-30T04:50:41.416Z,1018.04
2019-04-30T04:51:42.296Z,1018.06
2019-04-30T04:52:41.401Z,1017.99
2019-04-30T04:53:41.390Z,1017.99
2019-04-30T04:54:41.385Z,1018.05
2019-04-30T04:55:41.389Z,1017.99
2019-04-30T04:56:41.374Z,1018.02
2019-04-30T04:57:41.371Z,1017.99
2019-04-30T04:58:41.367Z,1018.01
2019-04-30T04:59:42.538Z,1018.02
2019-04-30T05:00:41.353Z,1018.02
2019-04-30T05:01:41.340Z,1018.03
2019-04-30T05:02:41.331Z,1018.03
2019-04-30T05:03:41.331Z,1018.06
2019-04-30T05:04:41.329Z,1018.04
2019-04-30T05:05:41.314Z,1018.04
2019-04-30T05:06:41.314Z,1018.01
2019-04-30T05:07:41.304Z,1018.00
2019-04-30T05:08:41.299Z,1017.99
2019-04-30T05:09:41.295Z,1018.02
2019-04-30T05:10:41.287Z,1017.97
2019-04-30T05:11:41.281Z,1018.01
2019-04-30T05:12:41.274Z,1018.03
2019-04-30T05:13:41.266Z,1018.04
2019-04-30T05:14:41.259Z,1018.04
2019-04-30T05:15:41.249Z,1018.05
2019-04-30T05:16:41.244Z,1018.04
2019-04-30T05:17:41.241Z,1018.06
2019-04-30T05:18:41.234Z,1018.07
2019-04-30T05:19:41.226Z,1018.05
2019-04-30T05:20:41.755Z,1018.05
2019-04-30T05:21:44.544Z,1018.10
2019-04-30T05:22:41.211Z,1018.05
2019-04-30T05:23:42.674Z,1018.09
2019-04-30T05:24:41.202Z,1018.07
2019-04-30T05:25:41.190Z,1018.03
2019-04-30T05:26:41.184Z,1018.05
2019-04-30T05:27:41.180Z,1018.10
2019-04-30T05:28:41.172Z,1018.16
2019-04-30T05:29:41.173Z,1018.09
2019-04-30T05:30:41.163Z,1018.08
2019-04-30T05:31:41.155Z,1018.11
2019-04-30T05:32:41.149Z,1018.16
2019-04-30T05:33:41.142Z,1018.15
2019-04-30T05:34:41.133Z,1018.13
2019-04-30T05:35:41.131Z,1018.12
2019-04-30T05:36:41.123Z,1018.16
2019-04-30T05:37:41.113Z,1018.17
2019-04-30T05:38:41.115Z,1018.25
2019-04-30T05:39:41.103Z,1018.21
2019-04-30T05:40:42.497Z,1018.20
2019-04-30T05:41:41.225Z,1018.29
2019-04-30T05:42:41.089Z,1018.26
2019-04-30T05:43:41.084Z,1018.26
2019-04-30T05:44:41.080Z,1018.28
2019-04-30T05:45:41.067Z,1018.26
2019-04-30T05:46:41.062Z,1018.27
2019-04-30T05:47:41.055Z,1018.27
2019-04-30T05:48:41.047Z,1018.28
2019-04-30T05:49:41.049Z,1018.27
2019-04-30T05:50:41.038Z,1018.31
2019-04-30T05:51:52.880Z,1018.29
2019-04-30T05:52:41.024Z,1018.31
2019-04-30T05:53:41.022Z,1018.33
2019-04-30T05:54:41.016Z,1018.31
2019-04-30T05:55:41.013Z,1018.29
2019-04-30T05:56:42.730Z,1018.31
2019-04-30T05:57:53.136Z,1018.34
2019-04-30T05:58:40.990Z,1018.28
2019-04-30T05:59:40.985Z,1018.35
2019-04-30T06:00:40.976Z,1018.32
2019-04-30T06:01:47.873Z,1018.36
2019-04-30T06:02:40.969Z,1018.35
2019-04-30T06:03:40.965Z,1018.36
2019-04-30T06:04:40.959Z,1018.37
2019-04-30T06:05:40.951Z,1018.40
2019-04-30T06:06:40.945Z,1018.39
2019-04-30T06:07:40.942Z,1018.40
2019-04-30T06:08:40.939Z,1018.38
2019-04-30T06:09:40.927Z,1018.47
2019-04-30T06:10:40.922Z,1018.44
2019-04-30T06:11:40.914Z,1018.45
2019-04-30T06:12:40.908Z,1018.45
2019-04-30T06:13:40.907Z,1018.48
2019-04-30T06:14:49.001Z,1018.45
2019-04-30T06:15:40.894Z,1018.49
2019-04-30T06:16:40.889Z,1018.51
2019-04-30T06:17:40.880Z,1018.53
2019-04-30T06:18:42.208Z,1018.58
2019-04-30T06:19:40.871Z,1018.63
2019-04-30T06:20:40.867Z,1018.62
2019-04-30T06:21:40.864Z,1018.64
2019-04-30T06:22:40.859Z,1018.70
2019-04-30T06:23:40.852Z,1018.88
2019-04-30T06:24:40.846Z,1019.25
2019-04-30T06:25:55.314Z,1019.24
2019-04-30T06:26:40.838Z,1019.31
2019-04-30T06:27:40.834Z,1019.36
2019-04-30T06:28:41.652Z,1019.43
2019-04-30T06:29:40.823Z,1019.47
2019-04-30T06:30:40.816Z,1019.34
2019-04-30T06:31:43.166Z,1019.51
2019-04-30T06:32:40.811Z,1019.52
2019-04-30T06:33:40.810Z,1019.53
2019-04-30T06:34:41.935Z,1019.71
2019-04-30T06:35:40.809Z,1019.79
2019-04-30T06:36:50.987Z,1019.70
2019-04-30T06:37:40.801Z,1019.63
2019-04-30T06:38:40.803Z,1019.24
2019-04-30T06:39:40.807Z,1019.20
2019-04-30T06:40:40.804Z,1019.73
2019-04-30T06:41:41.070Z,1019.25
2019-04-30T06:42:40.798Z,1019.70
2019-04-30T06:43:40.795Z,1019.81
2019-04-30T06:44:41.909Z,1019.85
2019-04-30T06:45:40.801Z,1019.84
2019-04-30T06:46:40.807Z,1019.90
2019-04-30T06:47:40.804Z,1019.90
2019-04-30T06:48:41.854Z,1019.39
2019-04-30T06:49:40.799Z,1019.87
2019-04-30T06:50:40.803Z,1019.90
2019-04-30T06:51:40.807Z,1019.99
2019-04-30T06:52:40.807Z,1019.92
2019-04-30T06:53:40.812Z,1019.78
2019-04-30T06:54:40.814Z,1019.35
2019-04-30T06:55:40.814Z,1019.24
2019-04-30T06:56:40.815Z,1019.72
2019-04-30T06:57:40.820Z,1019.38
2019-04-30T06:58:41.369Z,1019.31
2019-04-30T06:59:40.823Z,1020.02
2019-04-30T07:00:40.826Z,1020.11
2019-04-30T07:01:40.822Z,1020.13
2019-04-30T07:02:40.824Z,1020.14
2019-04-30T07:03:40.826Z,1019.40
2019-04-30T07:04:40.829Z,1019.36
2019-04-30T07:05:40.836Z,1019.37
2019-04-30T07:06:44.134Z,1019.51
2019-04-30T07:07:41.750Z,1020.08
2019-04-30T07:08:46.761Z,1020.11
2019-04-30T07:09:52.146Z,1020.19
2019-04-30T07:10:52.713Z,1020.19
2019-04-30T07:11:40.855Z,1020.18
2019-04-30T07:12:40.858Z,1019.80
2019-04-30T07:13:40.856Z,1020.19
2019-04-30T07:14:41.963Z,1020.20
2019-04-30T07:15:40.861Z,1020.15
2019-04-30T07:16:40.864Z,1020.30
2019-04-30T07:17:40.876Z,1020.28
2019-04-30T07:18:40.879Z,1019.74
2019-04-30T07:19:53.478Z,1019.56
2019-04-30T07:20:40.885Z,1020.25
2019-04-30T07:21:42.903Z,1020.22
2019-04-30T07:22:49.369Z,1020.32
2019-04-30T07:23:40.898Z,1020.26
2019-04-30T07:24:40.946Z,1019.36
2019-04-30T07:25:40.910Z,1019.27
2019-04-30T07:26:40.916Z,1019.19
2019-04-30T07:27:40.920Z,1019.18
2019-04-30T07:28:46.935Z,1019.18
2019-04-30T07:29:40.926Z,1019.19
2019-04-30T07:30:40.993Z,1019.15
2019-04-30T07:31:40.934Z,1019.19
2019-04-30T07:32:40.939Z,1019.18
2019-04-30T07:33:40.935Z,1019.20
2019-04-30T07:34:40.939Z,1019.15
2019-04-30T07:35:40.943Z,1019.14
2019-04-30T07:36:46.800Z,1019.15
2019-04-30T07:37:40.951Z,1019.10
2019-04-30T07:38:51.710Z,1019.11
2019-04-30T07:39:40.960Z,1019.10
2019-04-30T07:40:40.962Z,1019.14
2019-04-30T07:41:40.959Z,1019.13
2019-04-30T07:42:44.916Z,1019.39
2019-04-30T07:43:40.968Z,1019.16
2019-04-30T07:44:40.967Z,1019.20
2019-04-30T07:45:40.976Z,1019.21
2019-04-30T07:46:45.254Z,1019.21
2019-04-30T07:47:40.965Z,1019.24
2019-04-30T07:48:40.967Z,1019.21
2019-04-30T07:49:50.905Z,1019.16
2019-04-30T07:50:41.759Z,1019.24
2019-04-30T07:51:42.075Z,1019.25
2019-04-30T07:52:58.154Z,1019.29
2019-04-30T07:53:40.969Z,1019.30
2019-04-30T07:54:40.971Z,1019.48
2019-04-30T07:55:40.976Z,1019.44
2019-04-30T07:56:41.842Z,1019.61
2019-04-30T07:57:40.980Z,1019.49
2019-04-30T07:58:40.980Z,1019.33
2019-04-30T07:59:40.978Z,1019.27
2019-04-30T08:00:40.982Z,1019.31
2019-04-30T08:02:00.614Z,1019.33
2019-04-30T08:02:43.684Z,1019.27
2019-04-30T08:03:41.404Z,1019.39
2019-04-30T08:04:40.988Z,1019.41
2019-04-30T08:05:40.989Z,1019.56
2019-04-30T08:06:41.041Z,1019.66
2019-04-30T08:07:41.058Z,1019.74
2019-04-30T08:08:41.232Z,1019.77
2019-04-30T08:09:42.282Z,1019.81
2019-04-30T08:10:41.005Z,1019.91
2019-04-30T08:11:43.413Z,1019.91
2019-04-30T08:12:43.453Z,1019.95
2019-04-30T08:13:41.578Z,1019.93
2019-04-30T08:14:41.013Z,1020.08
2019-04-30T08:15:42.354Z,1020.03
2019-04-30T08:16:41.030Z,1020.10
2019-04-30T08:17:41.027Z,1020.08
2019-04-30T08:18:41.034Z,1020.08
2019-04-30T08:19:41.219Z,1020.08
2019-04-30T08:20:41.052Z,1019.94
2019-04-30T08:21:41.062Z,1019.65
2019-04-30T08:22:41.212Z,1019.75
2019-04-30T08:23:41.079Z,1019.75
2019-04-30T08:24:41.090Z,1020.02
2019-04-30T08:25:41.093Z,1019.99
2019-04-30T08:26:41.100Z,1020.07
2019-04-30T08:27:41.107Z,1020.05
2019-04-30T08:28:41.118Z,1020.18
2019-04-30T08:29:41.128Z,1020.07
2019-04-30T08:30:41.138Z,1019.81
2019-04-30T08:31:41.144Z,1019.76
2019-04-30T08:32:41.149Z,1020.04
2019-04-30T08:33:41.164Z,1020.09
2019-04-30T08:34:41.171Z,1020.06
2019-04-30T08:35:41.187Z,1020.18
2019-04-30T08:36:41.194Z,1020.22
2019-04-30T08:37:41.197Z,1020.20
2019-04-30T08:38:41.208Z,1020.09
2019-04-30T08:39:41.217Z,1020.09
2019-04-30T08:40:53.362Z,1020.11
2019-04-30T08:41:41.241Z,1020.13
2019-04-30T08:42:41.251Z,1020.10
2019-04-30T08:43:41.260Z,1020.17
2019-04-30T08:44:41.270Z,1020.17
2019-04-30T08:45:41.276Z,1020.20
2019-04-30T08:46:41.287Z,1020.16
2019-04-30T08:47:41.306Z,1020.11
2019-04-30T08:48:50.185Z,1020.11
2019-04-30T08:49:41.602Z,1019.94
2019-04-30T08:50:41.369Z,1020.00
2019-04-30T08:51:41.630Z,1020.13
2019-04-30T08:52:41.380Z,1020.09
2019-04-30T08:53:41.434Z,1020.10
2019-04-30T08:54:41.387Z,1020.15
2019-04-30T08:55:41.398Z,1020.12
2019-04-30T08:56:41.411Z,1020.15
2019-04-30T08:57:41.429Z,1020.13
2019-04-30T08:58:41.430Z,1020.12
2019-04-30T08:59:41.441Z,1020.16
2019-04-30T09:00:41.451Z,1020.17
2019-04-30T09:01:41.468Z,1020.10
2019-04-30T09:02:41.481Z,1020.13
2019-04-30T09:03:41.491Z,1020.13
2019-04-30T09:04:41.505Z,1019.88
2019-04-30T09:05:41.520Z,1019.88
2019-04-30T09:06:41.534Z,1019.80
2019-04-30T09:07:41.549Z,1019.97
2019-04-30T09:08:41.563Z,1020.09
2019-04-30T09:09:44.496Z,1020.12
2019-04-30T09:10:41.584Z,1019.99
2019-04-30T09:11:51.741Z,1020.06
2019-04-30T09:12:41.610Z,1020.20
2019-04-30T09:13:41.649Z,1020.09
2019-04-30T09:14:41.635Z,1019.85
2019-04-30T09:15:41.651Z,1020.11
2019-04-30T09:16:41.679Z,1020.20
2019-04-30T09:17:41.673Z,1020.25
2019-04-30T09:18:41.685Z,1020.23
2019-04-30T09:19:41.705Z,1020.29
2019-04-30T09:20:41.717Z,1020.27
2019-04-30T09:21:41.727Z,1020.24
2019-04-30T09:22:41.739Z,1020.21
2019-04-30T09:23:49.413Z,1020.21
2019-04-30T09:24:41.766Z,1020.22
2019-04-30T09:25:41.782Z,1020.33
2019-04-30T09:26:41.796Z,1020.40
2019-04-30T09:27:41.811Z,1020.36
2019-04-30T09:28:41.826Z,1020.39
2019-04-30T09:29:44.519Z,1020.23
2019-04-30T09:30:41.850Z,1020.05
2019-04-30T09:31:41.868Z,1020.35
2019-04-30T09:32:41.883Z,1020.49
2019-04-30T09:33:41.901Z,1020.55
2019-04-30T09:34:41.916Z,1020.58
2019-04-30T09:35:41.927Z,1020.61
2019-04-30T09:36:41.944Z,1020.38
2019-04-30T09:37:41.997Z,1020.09
2019-04-30T09:38:41.979Z,1020.05
2019-04-30T09:39:41.989Z,1020.05
2019-04-30T09:40:42.004Z,1020.04
2019-04-30T09:41:42.013Z,1020.03
2019-04-30T09:42:42.029Z,1020.07
2019-04-30T09:43:42.045Z,1020.05
2019-04-30T09:44:42.061Z,1020.02
2019-04-30T09:45:42.079Z,1019.82
2019-04-30T09:46:42.094Z,1020.01
2019-04-30T09:47:42.197Z,1019.96
2019-04-30T09:48:42.132Z,1019.95
2019-04-30T09:49:42.138Z,1020.01
2019-04-30T09:50:42.336Z,1019.94
2019-04-30T09:51:42.447Z,1019.97
2019-04-30T09:52:42.622Z,1020.10
2019-04-30T09:53:42.201Z,1020.19
2019-04-30T09:54:42.235Z,1020.17
2019-04-30T09:55:42.229Z,1020.07
2019-04-30T09:56:42.245Z,1019.69
2019-04-30T09:57:42.265Z,1019.58
2019-04-30T09:58:42.283Z,1019.49
2019-04-30T09:59:42.298Z,1019.39
2019-04-30T10:00:42.314Z,1019.39
2019-04-30T10:01:42.329Z,1019.76
2019-04-30T10:02:42.340Z,1019.76
2019-04-30T10:03:42.889Z,1019.74
2019-04-30T10:04:42.820Z,1019.73
2019-04-30T10:05:42.388Z,1019.75
2019-04-30T10:06:42.401Z,1019.65
2019-04-30T10:07:42.412Z,1019.64
2019-04-30T10:08:48.407Z,1019.58
2019-04-30T10:09:42.444Z,1019.58
2019-04-30T10:10:42.459Z,1019.56
2019-04-30T10:11:42.470Z,1019.48
2019-04-30T10:12:42.488Z,1019.55
2019-04-30T10:13:42.492Z,1019.51
2019-04-30T10:14:42.507Z,1019.52
2019-04-30T10:15:42.525Z,1019.51
2019-04-30T10:16:42.537Z,1019.46
2019-04-30T10:17:42.555Z,1019.48
2019-04-30T10:18:42.569Z,1019.46
2019-04-30T10:19:42.581Z,1019.45
2019-04-30T10:20:42.595Z,1019.38
2019-04-30T10:21:42.606Z,1019.33
2019-04-30T10:22:42.619Z,1019.39
2019-04-30T10:23:42.639Z,1019.40
2019-04-30T10:24:42.652Z,1019.30
2019-04-30T10:25:42.665Z,1019.23
2019-04-30T10:26:42.675Z,1019.26
2019-04-30T10:27:42.716Z,1019.27
2019-04-30T10:28:42.708Z,1019.27
2019-04-30T10:29:42.723Z,1019.20
2019-04-30T10:30:42.739Z,1019.25
2019-04-30T10:31:42.753Z,1019.26
2019-04-30T10:32:42.769Z,1019.16
2019-04-30T10:33:42.777Z,1019.24
2019-04-30T10:34:42.795Z,1019.21
2019-04-30T10:35:42.804Z,1019.18
2019-04-30T10:36:42.821Z,1019.21
2019-04-30T10:37:42.841Z,1019.17
2019-04-30T10:38:42.853Z,1019.13
2019-04-30T10:39:42.906Z,1019.07
2019-04-30T10:40:42.881Z,1019.16
2019-04-30T10:41:42.898Z,1019.18
2019-04-30T10:42:42.912Z,1019.13
2019-04-30T10:43:42.928Z,1019.17
2019-04-30T10:44:42.943Z,1019.10
2019-04-30T10:45:42.954Z,1019.11
2019-04-30T10:46:42.968Z,1019.11
2019-04-30T10:47:42.985Z,1019.15
2019-04-30T10:48:43.453Z,1019.06
2019-04-30T10:49:43.021Z,1019.12
2019-04-30T10:50:43.029Z,1019.08
2019-04-30T10:51:43.041Z,1019.00
2019-04-30T10:52:43.054Z,1018.99
2019-04-30T10:53:43.065Z,1019.02
2019-04-30T10:54:43.076Z,1019.06
2019-04-30T10:55:43.097Z,1019.07
2019-04-30T10:56:43.110Z,1019.05
2019-04-30T10:57:43.117Z,1019.00
2019-04-30T10:58:43.154Z,1018.92
2019-04-30T10:59:43.149Z,1018.92
2019-04-30T11:00:43.162Z,1018.94
2019-04-30T11:01:43.179Z,1018.93
2019-04-30T11:02:43.193Z,1018.93
2019-04-30T11:03:43.209Z,1018.94
2019-04-30T11:04:43.221Z,1018.96
2019-04-30T11:05:43.229Z,1018.89
2019-04-30T11:06:43.243Z,1018.89
2019-04-30T11:07:43.254Z,1018.87
2019-04-30T11:08:43.268Z,1018.85
2019-04-30T11:09:43.323Z,1018.91
2019-04-30T11:10:43.299Z,1018.82
2019-04-30T11:11:43.308Z,1018.86
2019-04-30T11:12:43.319Z,1018.93
2019-04-30T11:13:43.353Z,1018.82
2019-04-30T11:14:43.349Z,1018.79
2019-04-30T11:15:43.381Z,1018.83
2019-04-30T11:16:43.543Z,1018.73
2019-04-30T11:17:43.597Z,1018.72
2019-04-30T11:18:43.608Z,1018.58
2019-04-30T11:19:43.600Z,1018.52
2019-04-30T11:20:43.671Z,1018.49
2019-04-30T11:21:43.576Z,1018.47
2019-04-30T11:22:43.621Z,1018.35
2019-04-30T11:23:43.719Z,1018.36
2019-04-30T11:24:56.505Z,1018.26
2019-04-30T11:25:44.038Z,1018.29
2019-04-30T11:26:44.494Z,1018.22
2019-04-30T11:27:44.063Z,1018.21
2019-04-30T11:28:43.749Z,1018.15
2019-04-30T11:29:43.768Z,1018.18
2019-04-30T11:30:43.749Z,1018.12
2019-04-30T11:31:43.709Z,1018.07
2019-04-30T11:32:43.717Z,1018.09
2019-04-30T11:33:43.778Z,1018.08
2019-04-30T11:34:43.566Z,1018.05
2019-04-30T11:35:43.575Z,1018.03
2019-04-30T11:36:43.580Z,1018.07
2019-04-30T11:37:43.582Z,1018.01
2019-04-30T11:38:43.588Z,1018.02
2019-04-30T11:39:43.599Z,1018.00
2019-04-30T11:40:43.605Z,1017.94
2019-04-30T11:41:43.615Z,1017.91
2019-04-30T11:42:43.622Z,1017.89
2019-04-30T11:43:43.623Z,1017.90
2019-04-30T11:44:43.630Z,1017.84
2019-04-30T11:45:43.638Z,1017.82
2019-04-30T11:46:43.645Z,1017.87
2019-04-30T11:47:52.995Z,1017.84
2019-04-30T11:48:43.652Z,1017.79
2019-04-30T11:49:43.653Z,1017.80
2019-04-30T11:50:43.659Z,1017.74
2019-04-30T11:51:43.662Z,1017.76
2019-04-30T11:52:43.666Z,1017.78
2019-04-30T11:53:43.674Z,1017.75
2019-04-30T11:54:51.301Z,1017.73
2019-04-30T11:55:43.686Z,1017.74
2019-04-30T11:56:43.691Z,1017.66
2019-04-30T11:57:43.691Z,1017.64
2019-04-30T11:58:43.695Z,1017.63
2019-04-30T11:59:43.701Z,1017.59
2019-04-30T12:00:43.703Z,1017.58
2019-04-30T12:01:43.703Z,1017.58
2019-04-30T12:02:43.707Z,1017.54
2019-04-30T12:03:43.707Z,1017.54
2019-04-30T12:04:43.709Z,1017.53
2019-04-30T12:05:43.720Z,1017.48